sensor_id;sensor_type;location;lat;lon;timestamp;pressure;altitude;pressure_sealevel;temperature;humidity
73024;BME280;61199;47.526;8.538;2023-03-26T00:00:50;96137.66;;;9.72;66.09
73024;BME280;61199;47.526;8.538;2023-03-26T00:03:19;96132.47;;;9.81;66.15
73024;BME280;61199;47.526;8.538;2023-03-26T00:05:45;96131.22;;;9.95;65.69
73024;BME280;61199;47.526;8.538;2023-03-26T00:08:15;96124.88;;;9.97;65.94
73024;BME280;61199;47.526;8.538;2023-03-26T00:10:42;96120.81;;;10.04;65.94
73024;BME280;61199;47.526;8.538;2023-03-26T00:13:09;96122.69;;;10.02;66.07
73024;BME280;61199;47.526;8.538;2023-03-26T00:15:36;96123.38;;;9.95;66.70
73024;BME280;61199;47.526;8.538;2023-03-26T00:18:02;96126.25;;;10.01;66.27
73024;BME280;61199;47.526;8.538;2023-03-26T00:20:30;96127.34;;;9.99;66.25
73024;BME280;61199;47.526;8.538;2023-03-26T00:22:59;96126.25;;;10.01;66.19
73024;BME280;61199;47.526;8.538;2023-03-26T00:25:27;96126.25;;;10.01;65.89
73024;BME280;61199;47.526;8.538;2023-03-26T00:27:53;96119.41;;;9.91;66.41
73024;BME280;61199;47.526;8.538;2023-03-26T00:30:20;96117.72;;;9.90;66.87
73024;BME280;61199;47.526;8.538;2023-03-26T00:32:46;96122.16;;;10.08;66.21
73024;BME280;61199;47.526;8.538;2023-03-26T00:35:19;96123.66;;;10.20;66.24
73024;BME280;61199;47.526;8.538;2023-03-26T00:37:45;96118.41;;;10.20;65.95
73024;BME280;61199;47.526;8.538;2023-03-26T00:40:12;96117.19;;;10.15;66.15
73024;BME280;61199;47.526;8.538;2023-03-26T00:42:38;96122.13;;;9.99;66.25
73024;BME280;61199;47.526;8.538;2023-03-26T00:45:06;96119.38;;;9.81;66.98
73024;BME280;61199;47.526;8.538;2023-03-26T00:47:33;96116.63;;;9.92;67.24
73024;BME280;61199;47.526;8.538;2023-03-26T00:49:59;96114.84;;;9.93;66.72
73024;BME280;61199;47.526;8.538;2023-03-26T00:52:26;96107.81;;;9.74;67.38
73024;BME280;61199;47.526;8.538;2023-03-26T00:54:54;96109.75;;;9.72;67.51
73024;BME280;61199;47.526;8.538;2023-03-26T00:57:21;96101.75;;;9.64;67.74
73024;BME280;61199;47.526;8.538;2023-03-26T01:00:00;96101.47;;;9.67;67.70
73024;BME280;61199;47.526;8.538;2023-03-26T01:02:41;96097.75;;;9.60;68.09
73024;BME280;61199;47.526;8.538;2023-03-26T01:08:30;96095.97;;;9.61;67.81
73024;BME280;61199;47.526;8.538;2023-03-26T01:11:00;96097.47;;;9.63;67.54
73024;BME280;61199;47.526;8.538;2023-03-26T01:13:32;96093.38;;;9.70;67.82
73024;BME280;61199;47.526;8.538;2023-03-26T01:16:00;96085.78;;;9.67;67.62
73024;BME280;61199;47.526;8.538;2023-03-26T01:18:30;96081.25;;;9.69;67.59
73024;BME280;61199;47.526;8.538;2023-03-26T01:21:01;96073.69;;;9.76;67.51
73024;BME280;61199;47.526;8.538;2023-03-26T01:23:38;96072.16;;;9.73;67.01
73024;BME280;61199;47.526;8.538;2023-03-26T01:29:02;96055.47;;;9.93;66.47
73024;BME280;61199;47.526;8.538;2023-03-26T01:31:36;96051.34;;;10.00;66.73
73024;BME280;61199;47.526;8.538;2023-03-26T01:36:46;96037.28;;;10.30;66.02
73024;BME280;61199;47.526;8.538;2023-03-26T01:39:23;96025.16;;;10.29;65.11
73024;BME280;61199;47.526;8.538;2023-03-26T01:41:56;96025.97;;;10.29;65.61
73024;BME280;61199;47.526;8.538;2023-03-26T01:46:51;96009.50;;;10.10;66.12
73024;BME280;61199;47.526;8.538;2023-03-26T01:49:19;96007.97;;;9.98;66.47
73024;BME280;61199;47.526;8.538;2023-03-26T01:51:46;96003.03;;;9.95;66.70
73024;BME280;61199;47.526;8.538;2023-03-26T01:54:16;95992.44;;;9.87;67.07
73024;BME280;61199;47.526;8.538;2023-03-26T01:56:57;95999.06;;;9.72;67.50
73024;BME280;61199;47.526;8.538;2023-03-26T02:02:38;95977.16;;;9.92;67.01
73024;BME280;61199;47.526;8.538;2023-03-26T02:08:22;95971.88;;;10.01;66.97
73024;BME280;61199;47.526;8.538;2023-03-26T02:10:58;95958.88;;;9.82;67.77
73024;BME280;61199;47.526;8.538;2023-03-26T02:13:27;95954.03;;;9.87;67.41
73024;BME280;61199;47.526;8.538;2023-03-26T02:16:02;95942.44;;;9.90;67.41
73024;BME280;61199;47.526;8.538;2023-03-26T02:18:29;95944.38;;;9.97;67.35
73024;BME280;61199;47.526;8.538;2023-03-26T02:21:13;95939.56;;;10.02;67.21
73024;BME280;61199;47.526;8.538;2023-03-26T02:23:41;95948.63;;;9.98;67.25
73024;BME280;61199;47.526;8.538;2023-03-26T02:26:15;95937.94;;;9.82;67.78
73024;BME280;61199;47.526;8.538;2023-03-26T02:28:44;95935.63;;;9.79;67.79
73024;BME280;61199;47.526;8.538;2023-03-26T02:31:11;95915.34;;;9.91;68.21
73024;BME280;61199;47.526;8.538;2023-03-26T02:33:38;95909.22;;;10.19;67.47
73024;BME280;61199;47.526;8.538;2023-03-26T02:36:05;95910.16;;;10.45;66.63
73024;BME280;61199;47.526;8.538;2023-03-26T02:38:33;95896.28;;;10.62;66.19
73024;BME280;61199;47.526;8.538;2023-03-26T02:41:03;95893.97;;;10.76;65.43
73024;BME280;61199;47.526;8.538;2023-03-26T02:43:30;95894.75;;;10.86;65.30
73024;BME280;61199;47.526;8.538;2023-03-26T02:45:57;95884.03;;;10.97;64.50
73024;BME280;61199;47.526;8.538;2023-03-26T02:48:23;95875.41;;;11.05;64.63
73024;BME280;61199;47.526;8.538;2023-03-26T02:50:50;95868.75;;;11.10;64.80
73024;BME280;61199;47.526;8.538;2023-03-26T02:53:20;95864.16;;;11.12;64.19
73024;BME280;61199;47.526;8.538;2023-03-26T02:55:58;95858.66;;;11.15;64.31
73024;BME280;61199;47.526;8.538;2023-03-26T02:58:26;95857.03;;;11.22;64.96
73024;BME280;61199;47.526;8.538;2023-03-26T03:00:55;95831.81;;;11.21;65.07
73024;BME280;61199;47.526;8.538;2023-03-26T03:03:24;95856.09;;;11.23;65.12
73024;BME280;61199;47.526;8.538;2023-03-26T03:05:54;95845.22;;;10.48;67.34
73024;BME280;61199;47.526;8.538;2023-03-26T03:08:25;95839.56;;;10.53;67.37
73024;BME280;61199;47.526;8.538;2023-03-26T03:10:58;95853.34;;;10.72;66.88
73024;BME280;61199;47.526;8.538;2023-03-26T03:13:24;95840.47;;;10.61;67.42
73024;BME280;61199;47.526;8.538;2023-03-26T03:15:51;95862.31;;;10.52;67.99
73024;BME280;61199;47.526;8.538;2023-03-26T03:18:18;95853.47;;;10.53;68.03
73024;BME280;61199;47.526;8.538;2023-03-26T03:20:45;95841.59;;;10.41;68.56
73024;BME280;61199;47.526;8.538;2023-03-26T03:23:12;95845.25;;;10.21;68.67
73024;BME280;61199;47.526;8.538;2023-03-26T03:25:38;95841.28;;;9.90;69.44
73024;BME280;61199;47.526;8.538;2023-03-26T03:28:07;95853.47;;;9.99;69.95
73024;BME280;61199;47.526;8.538;2023-03-26T03:30:34;95843.47;;;9.85;70.57
73024;BME280;61199;47.526;8.538;2023-03-26T03:33:01;95847.22;;;9.83;70.85
73024;BME280;61199;47.526;8.538;2023-03-26T03:35:29;95841.78;;;10.03;70.40
73024;BME280;61199;47.526;8.538;2023-03-26T03:37:56;95823.34;;;10.05;69.87
73024;BME280;61199;47.526;8.538;2023-03-26T03:40:23;95823.56;;;10.11;70.28
73024;BME280;61199;47.526;8.538;2023-03-26T03:42:50;95824.09;;;10.15;69.92
73024;BME280;61199;47.526;8.538;2023-03-26T03:45:16;95829.19;;;9.80;71.68
73024;BME280;61199;47.526;8.538;2023-03-26T03:47:43;95823.91;;;9.62;72.30
73024;BME280;61199;47.526;8.538;2023-03-26T03:50:10;95816.31;;;9.69;72.56
73024;BME280;61199;47.526;8.538;2023-03-26T03:52:36;95809.25;;;9.79;71.68
73024;BME280;61199;47.526;8.538;2023-03-26T03:55:03;95807.50;;;9.97;71.14
73024;BME280;61199;47.526;8.538;2023-03-26T03:57:29;95804.25;;;9.85;71.13
73024;BME280;61199;47.526;8.538;2023-03-26T03:59:57;95799.88;;;9.76;71.59
73024;BME280;61199;47.526;8.538;2023-03-26T04:02:24;95789.06;;;9.98;71.35
73024;BME280;61199;47.526;8.538;2023-03-26T04:05:01;95793.22;;;10.18;71.23
73024;BME280;61199;47.526;8.538;2023-03-26T04:07:29;95797.16;;;9.41;73.39
73024;BME280;61199;47.526;8.538;2023-03-26T04:09:57;95775.06;;;9.17;74.17
73024;BME280;61199;47.526;8.538;2023-03-26T04:12:26;95787.75;;;9.48;73.79
73024;BME280;61199;47.526;8.538;2023-03-26T04:14:54;95783.94;;;9.43;73.91
73024;BME280;61199;47.526;8.538;2023-03-26T04:17:21;95782.44;;;9.67;73.66
73024;BME280;61199;47.526;8.538;2023-03-26T04:19:48;95773.25;;;9.90;73.12
73024;BME280;61199;47.526;8.538;2023-03-26T04:22:15;95765.72;;;10.14;72.05
73024;BME280;61199;47.526;8.538;2023-03-26T04:24:44;95756.97;;;10.23;70.96
73024;BME280;61199;47.526;8.538;2023-03-26T04:27:13;95749.50;;;10.11;71.08
73024;BME280;61199;47.526;8.538;2023-03-26T04:29:43;95752.81;;;10.03;71.35
73024;BME280;61199;47.526;8.538;2023-03-26T04:32:19;95759.44;;;10.07;71.47
73024;BME280;61199;47.526;8.538;2023-03-26T04:34:46;95747.09;;;10.17;71.29
73024;BME280;61199;47.526;8.538;2023-03-26T04:37:21;95742.31;;;10.30;71.62
73024;BME280;61199;47.526;8.538;2023-03-26T04:39:49;95744.03;;;10.39;71.27
73024;BME280;61199;47.526;8.538;2023-03-26T04:42:16;95749.25;;;10.39;71.65
73024;BME280;61199;47.526;8.538;2023-03-26T04:44:46;95732.22;;;10.35;71.53
73024;BME280;61199;47.526;8.538;2023-03-26T04:47:17;95730.28;;;10.37;71.79
73024;BME280;61199;47.526;8.538;2023-03-26T04:49:44;95722.28;;;10.39;72.18
73024;BME280;61199;47.526;8.538;2023-03-26T04:52:13;95726.16;;;10.35;72.50
73024;BME280;61199;47.526;8.538;2023-03-26T04:54:42;95740.53;;;10.13;72.70
73024;BME280;61199;47.526;8.538;2023-03-26T04:57:20;95720.78;;;9.74;73.79
73024;BME280;61199;47.526;8.538;2023-03-26T04:59:48;95695.13;;;10.05;73.32
73024;BME280;61199;47.526;8.538;2023-03-26T05:02:15;95689.91;;;10.22;72.77
73024;BME280;61199;47.526;8.538;2023-03-26T05:04:43;95694.66;;;10.27;72.22
73024;BME280;61199;47.526;8.538;2023-03-26T05:07:16;95700.44;;;10.13;72.63
73024;BME280;61199;47.526;8.538;2023-03-26T05:09:44;95697.44;;;9.63;73.73
73024;BME280;61199;47.526;8.538;2023-03-26T05:12:10;95688.28;;;9.23;76.22
73024;BME280;61199;47.526;8.538;2023-03-26T05:14:36;95688.53;;;9.56;75.20
73024;BME280;61199;47.526;8.538;2023-03-26T05:17:03;95683.81;;;9.42;75.51
73024;BME280;61199;47.526;8.538;2023-03-26T05:19:36;95683.69;;;9.07;76.79
73024;BME280;61199;47.526;8.538;2023-03-26T05:22:03;95683.22;;;8.94;76.19
73024;BME280;61199;47.526;8.538;2023-03-26T05:24:29;95679.72;;;9.30;75.64
73024;BME280;61199;47.526;8.538;2023-03-26T05:26:56;95661.53;;;9.38;74.94
73024;BME280;61199;47.526;8.538;2023-03-26T05:29:22;95656.31;;;9.38;75.44
73024;BME280;61199;47.526;8.538;2023-03-26T05:31:49;95655.31;;;9.66;74.54
73024;BME280;61199;47.526;8.538;2023-03-26T05:34:16;95653.16;;;9.79;74.34
73024;BME280;61199;47.526;8.538;2023-03-26T05:36:42;95661.19;;;9.95;73.76
73024;BME280;61199;47.526;8.538;2023-03-26T05:39:09;95657.69;;;10.04;73.06
73024;BME280;61199;47.526;8.538;2023-03-26T05:41:35;95649.88;;;10.12;72.87
73024;BME280;61199;47.526;8.538;2023-03-26T05:44:02;95649.03;;;9.94;73.23
73024;BME280;61199;47.526;8.538;2023-03-26T05:46:28;95648.28;;;9.84;73.94
73024;BME280;61199;47.526;8.538;2023-03-26T05:48:55;95652.72;;;9.39;75.54
73024;BME280;61199;47.526;8.538;2023-03-26T05:51:21;95654.19;;;9.24;75.92
73024;BME280;61199;47.526;8.538;2023-03-26T05:53:48;95656.59;;;9.35;76.14
73024;BME280;61199;47.526;8.538;2023-03-26T05:56:14;95648.09;;;9.33;75.74
73024;BME280;61199;47.526;8.538;2023-03-26T05:58:41;95634.84;;;9.62;75.19
73024;BME280;61199;47.526;8.538;2023-03-26T06:01:11;95629.41;;;9.73;74.59
73024;BME280;61199;47.526;8.538;2023-03-26T06:03:43;95625.16;;;9.89;74.56
73024;BME280;61199;47.526;8.538;2023-03-26T06:06:13;95624.09;;;10.00;74.24
73024;BME280;61199;47.526;8.538;2023-03-26T06:08:45;95611.41;;;10.05;74.27
73024;BME280;61199;47.526;8.538;2023-03-26T06:11:12;95601.84;;;10.13;73.73
73024;BME280;61199;47.526;8.538;2023-03-26T06:13:38;95597.63;;;10.20;73.68
73024;BME280;61199;47.526;8.538;2023-03-26T06:16:05;95573.00;;;10.31;72.98
73024;BME280;61199;47.526;8.538;2023-03-26T06:18:31;95567.97;;;10.37;72.58
73024;BME280;61199;47.526;8.538;2023-03-26T06:20:58;95570.13;;;10.42;72.59
73024;BME280;61199;47.526;8.538;2023-03-26T06:23:24;95570.28;;;10.40;71.56
73024;BME280;61199;47.526;8.538;2023-03-26T06:25:51;95579.16;;;10.22;71.66
73024;BME280;61199;47.526;8.538;2023-03-26T06:28:17;95576.41;;;10.23;71.41
73024;BME280;61199;47.526;8.538;2023-03-26T06:30:44;95578.78;;;9.99;72.55
73024;BME280;61199;47.526;8.538;2023-03-26T06:33:10;95582.84;;;10.11;72.40
73024;BME280;61199;47.526;8.538;2023-03-26T06:35:36;95576.03;;;10.01;71.87
73024;BME280;61199;47.526;8.538;2023-03-26T06:38:03;95573.16;;;9.86;72.84
73024;BME280;61199;47.526;8.538;2023-03-26T06:40:29;95562.75;;;9.42;73.95
73024;BME280;61199;47.526;8.538;2023-03-26T06:42:56;95573.81;;;9.53;74.15
73024;BME280;61199;47.526;8.538;2023-03-26T06:45:35;95574.78;;;9.52;73.64
73024;BME280;61199;47.526;8.538;2023-03-26T06:48:02;95579.03;;;9.71;72.97
73024;BME280;61199;47.526;8.538;2023-03-26T06:50:28;95597.38;;;9.26;75.14
73024;BME280;61199;47.526;8.538;2023-03-26T06:52:57;95561.34;;;8.85;77.23
73024;BME280;61199;47.526;8.538;2023-03-26T06:55:24;95570.41;;;9.08;76.67
73024;BME280;61199;47.526;8.538;2023-03-26T06:57:52;95554.31;;;9.30;75.92
73024;BME280;61199;47.526;8.538;2023-03-26T07:00:19;95534.31;;;9.39;75.69
73024;BME280;61199;47.526;8.538;2023-03-26T07:02:46;95545.28;;;9.60;75.31
73024;BME280;61199;47.526;8.538;2023-03-26T07:05:13;95551.56;;;9.49;75.66
73024;BME280;61199;47.526;8.538;2023-03-26T07:07:39;95552.50;;;9.48;75.08
73024;BME280;61199;47.526;8.538;2023-03-26T07:10:12;95550.22;;;9.45;75.81
73024;BME280;61199;47.526;8.538;2023-03-26T07:12:38;95550.34;;;9.44;75.53
73024;BME280;61199;47.526;8.538;2023-03-26T07:15:05;95558.41;;;9.33;76.28
73024;BME280;61199;47.526;8.538;2023-03-26T07:17:32;95564.88;;;9.11;76.87
73024;BME280;61199;47.526;8.538;2023-03-26T07:19:58;95561.72;;;8.90;78.69
73024;BME280;61199;47.526;8.538;2023-03-26T07:22:26;95548.75;;;8.71;79.14
73024;BME280;61199;47.526;8.538;2023-03-26T07:24:53;95552.34;;;8.70;79.13
73024;BME280;61199;47.526;8.538;2023-03-26T07:30:13;95548.28;;;8.59;80.07
73024;BME280;61199;47.526;8.538;2023-03-26T07:32:52;95552.00;;;8.56;80.10
73024;BME280;61199;47.526;8.538;2023-03-26T07:35:39;95541.56;;;8.56;80.06
73024;BME280;61199;47.526;8.538;2023-03-26T07:38:25;95534.97;;;8.52;80.40
73024;BME280;61199;47.526;8.538;2023-03-26T07:41:15;95540.50;;;8.40;79.85
73024;BME280;61199;47.526;8.538;2023-03-26T07:46:35;95537.81;;;8.32;80.40
73024;BME280;61199;47.526;8.538;2023-03-26T07:49:02;95529.00;;;8.33;81.15
73024;BME280;61199;47.526;8.538;2023-03-26T07:51:30;95516.88;;;8.41;80.28
73024;BME280;61199;47.526;8.538;2023-03-26T07:53:57;95506.44;;;8.41;80.19
73024;BME280;61199;47.526;8.538;2023-03-26T07:56:37;95504.94;;;8.39;80.25
73024;BME280;61199;47.526;8.538;2023-03-26T08:05:04;95497.09;;;8.39;80.85
73024;BME280;61199;47.526;8.538;2023-03-26T08:07:48;95482.63;;;8.27;81.41
73024;BME280;61199;47.526;8.538;2023-03-26T08:10:24;95482.19;;;8.31;81.00
73024;BME280;61199;47.526;8.538;2023-03-26T08:13:15;95481.50;;;8.29;81.19
73024;BME280;61199;47.526;8.538;2023-03-26T08:19:02;95482.72;;;8.35;81.16
73024;BME280;61199;47.526;8.538;2023-03-26T08:21:37;95486.13;;;8.35;81.34
73024;BME280;61199;47.526;8.538;2023-03-26T08:24:50;95487.75;;;8.46;81.08
73024;BME280;61199;47.526;8.538;2023-03-26T08:27:31;95496.25;;;8.48;82.04
73024;BME280;61199;47.526;8.538;2023-03-26T08:30:23;95499.34;;;8.61;81.39
73024;BME280;61199;47.526;8.538;2023-03-26T08:32:55;95490.16;;;8.57;81.34
73024;BME280;61199;47.526;8.538;2023-03-26T08:35:24;95490.75;;;8.51;81.01
73024;BME280;61199;47.526;8.538;2023-03-26T08:37:50;95481.97;;;8.52;81.19
73024;BME280;61199;47.526;8.538;2023-03-26T08:40:40;95490.50;;;8.44;81.12
73024;BME280;61199;47.526;8.538;2023-03-26T08:48:59;95463.97;;;8.22;82.59
73024;BME280;61199;47.526;8.538;2023-03-26T09:00:37;95481.75;;;8.36;81.41
73024;BME280;61199;47.526;8.538;2023-03-26T09:08:48;95474.91;;;8.35;81.74
73024;BME280;61199;47.526;8.538;2023-03-26T09:23:39;95508.72;;;8.54;80.87
73024;BME280;61199;47.526;8.538;2023-03-26T09:40:34;95525.16;;;8.63;84.02
73024;BME280;61199;47.526;8.538;2023-03-26T09:57:14;95545.56;;;9.22;82.72
73024;BME280;61199;47.526;8.538;2023-03-26T09:59:56;95541.44;;;9.19;83.06
73024;BME280;61199;47.526;8.538;2023-03-26T10:05:38;95543.25;;;9.36;81.39
73024;BME280;61199;47.526;8.538;2023-03-26T10:11:16;95523.41;;;9.43;81.38
73024;BME280;61199;47.526;8.538;2023-03-26T10:14:14;95526.75;;;9.53;80.48
73024;BME280;61199;47.526;8.538;2023-03-26T10:19:44;95537.44;;;9.60;80.07
73024;BME280;61199;47.526;8.538;2023-03-26T10:25:22;95543.06;;;9.65;80.22
73024;BME280;61199;47.526;8.538;2023-03-26T10:31:06;95536.66;;;9.67;79.98
73024;BME280;61199;47.526;8.538;2023-03-26T10:33:49;95521.31;;;9.64;79.15
73024;BME280;61199;47.526;8.538;2023-03-26T10:36:26;95512.22;;;9.76;78.80
73024;BME280;61199;47.526;8.538;2023-03-26T10:42:22;95514.97;;;9.92;78.18
73024;BME280;61199;47.526;8.538;2023-03-26T10:47:54;95528.72;;;9.94;77.69
73024;BME280;61199;47.526;8.538;2023-03-26T10:53:46;95504.56;;;10.00;77.84
73024;BME280;61199;47.526;8.538;2023-03-26T10:56:22;95497.78;;;10.07;77.91
73024;BME280;61199;47.526;8.538;2023-03-26T10:58:51;95505.03;;;10.13;77.50
73024;BME280;61199;47.526;8.538;2023-03-26T11:04:24;95496.97;;;10.32;76.48
73024;BME280;61199;47.526;8.538;2023-03-26T11:07:30;95497.16;;;10.39;74.10
73024;BME280;61199;47.526;8.538;2023-03-26T11:10:05;95500.00;;;10.53;74.30
73024;BME280;61199;47.526;8.538;2023-03-26T11:18:35;95497.28;;;10.71;73.54
73024;BME280;61199;47.526;8.538;2023-03-26T11:26:54;95489.34;;;10.88;72.27
73024;BME280;61199;47.526;8.538;2023-03-26T11:29:45;95488.88;;;11.01;71.49
73024;BME280;61199;47.526;8.538;2023-03-26T11:32:19;95492.34;;;11.09;72.00
73024;BME280;61199;47.526;8.538;2023-03-26T11:35:01;95470.75;;;11.15;70.89
73024;BME280;61199;47.526;8.538;2023-03-26T11:37:34;95477.78;;;11.23;70.20
73024;BME280;61199;47.526;8.538;2023-03-26T11:40:11;95478.28;;;11.26;69.18
73024;BME280;61199;47.526;8.538;2023-03-26T11:42:40;95461.72;;;11.34;68.94
73024;BME280;61199;47.526;8.538;2023-03-26T11:45:15;95456.16;;;11.45;68.53
73024;BME280;61199;47.526;8.538;2023-03-26T11:47:47;95462.59;;;11.58;67.44
73024;BME280;61199;47.526;8.538;2023-03-26T11:50:20;95461.31;;;11.70;64.82
73024;BME280;61199;47.526;8.538;2023-03-26T11:52:46;95453.59;;;11.76;62.25
73024;BME280;61199;47.526;8.538;2023-03-26T11:55:13;95447.34;;;11.77;61.15
73024;BME280;61199;47.526;8.538;2023-03-26T11:57:46;95446.22;;;11.72;60.41
73024;BME280;61199;47.526;8.538;2023-03-26T12:00:17;95451.44;;;11.72;60.65
73024;BME280;61199;47.526;8.538;2023-03-26T12:02:47;95439.63;;;11.84;61.71
73024;BME280;61199;47.526;8.538;2023-03-26T12:05:20;95441.22;;;12.09;61.53
73024;BME280;61199;47.526;8.538;2023-03-26T12:07:55;95431.63;;;12.32;61.48
73024;BME280;61199;47.526;8.538;2023-03-26T12:10:33;95425.44;;;12.25;60.90
73024;BME280;61199;47.526;8.538;2023-03-26T12:15:56;95435.69;;;11.96;60.70
73024;BME280;61199;47.526;8.538;2023-03-26T12:18:26;95406.84;;;11.88;60.34
73024;BME280;61199;47.526;8.538;2023-03-26T12:21:22;95418.13;;;11.96;59.40
73024;BME280;61199;47.526;8.538;2023-03-26T12:24:02;95400.50;;;12.13;57.62
73024;BME280;61199;47.526;8.538;2023-03-26T12:29:10;95378.28;;;12.39;50.57
73024;BME280;61199;47.526;8.538;2023-03-26T12:31:48;95367.44;;;12.73;51.56
73024;BME280;61199;47.526;8.538;2023-03-26T12:34:17;95363.97;;;13.03;49.58
73024;BME280;61199;47.526;8.538;2023-03-26T12:37:05;95369.59;;;13.00;49.16
73024;BME280;61199;47.526;8.538;2023-03-26T12:39:40;95356.97;;;12.87;49.24
73024;BME280;61199;47.526;8.538;2023-03-26T12:42:31;95339.72;;;12.62;49.94
73024;BME280;61199;47.526;8.538;2023-03-26T12:45:23;95344.09;;;12.47;50.97
73024;BME280;61199;47.526;8.538;2023-03-26T12:47:54;95352.53;;;12.35;51.43
73024;BME280;61199;47.526;8.538;2023-03-26T12:59:00;95378.66;;;11.74;57.52
73024;BME280;61199;47.526;8.538;2023-03-26T13:01:39;95350.97;;;11.48;57.79
73024;BME280;61199;47.526;8.538;2023-03-26T13:07:21;95334.53;;;11.77;55.79
73024;BME280;61199;47.526;8.538;2023-03-26T13:12:31;95338.81;;;11.63;59.51
73024;BME280;61199;47.526;8.538;2023-03-26T13:15:20;95334.91;;;11.67;60.43
73024;BME280;61199;47.526;8.538;2023-03-26T13:18:14;95336.53;;;11.68;60.65
73024;BME280;61199;47.526;8.538;2023-03-26T13:29:58;95306.94;;;11.89;55.73
73024;BME280;61199;47.526;8.538;2023-03-26T13:35:24;95284.59;;;12.32;56.48
73024;BME280;61199;47.526;8.538;2023-03-26T13:39:05;95289.75;;;12.48;56.40
73024;BME280;61199;47.526;8.538;2023-03-26T13:46:44;95278.94;;;12.20;58.45
73024;BME280;61199;47.526;8.538;2023-03-26T13:49:26;95267.50;;;12.05;59.04
73024;BME280;61199;47.526;8.538;2023-03-26T13:51:59;95273.41;;;12.07;59.85
73024;BME280;61199;47.526;8.538;2023-03-26T13:54:31;95284.09;;;12.06;58.43
73024;BME280;61199;47.526;8.538;2023-03-26T13:57:31;95272.50;;;11.92;59.29
73024;BME280;61199;47.526;8.538;2023-03-26T14:00:14;95281.19;;;11.93;58.79
73024;BME280;61199;47.526;8.538;2023-03-26T14:02:45;95281.81;;;11.95;59.54
73024;BME280;61199;47.526;8.538;2023-03-26T14:05:20;95287.41;;;11.92;59.35
73024;BME280;61199;47.526;8.538;2023-03-26T14:07:57;95298.16;;;11.74;59.54
73024;BME280;61199;47.526;8.538;2023-03-26T14:10:29;95313.09;;;11.66;59.18
73024;BME280;61199;47.526;8.538;2023-03-26T14:15:51;95294.75;;;11.50;60.96
73024;BME280;61199;47.526;8.538;2023-03-26T14:21:08;95318.19;;;11.44;59.69
73024;BME280;61199;47.526;8.538;2023-03-26T14:32:44;95436.91;;;10.31;71.35
73024;BME280;61199;47.526;8.538;2023-03-26T14:35:31;95453.25;;;9.13;74.27
73024;BME280;61199;47.526;8.538;2023-03-26T14:41:24;95489.56;;;7.99;80.08
73024;BME280;61199;47.526;8.538;2023-03-26T14:44:10;95521.72;;;7.52;80.48
73024;BME280;61199;47.526;8.538;2023-03-26T14:47:18;95532.53;;;6.91;85.17
73024;BME280;61199;47.526;8.538;2023-03-26T14:50:04;95484.16;;;6.88;86.14
73024;BME280;61199;47.526;8.538;2023-03-26T14:52:51;95462.50;;;6.78;85.56
73024;BME280;61199;47.526;8.538;2023-03-26T14:58:48;95485.13;;;7.06;83.88
73024;BME280;61199;47.526;8.538;2023-03-26T15:01:25;95486.66;;;7.28;82.82
73024;BME280;61199;47.526;8.538;2023-03-26T15:09:49;95501.41;;;7.75;81.67
73024;BME280;61199;47.526;8.538;2023-03-26T15:20:59;95512.09;;;7.81;82.11
73024;BME280;61199;47.526;8.538;2023-03-26T15:26:28;95510.22;;;7.64;83.22
73024;BME280;61199;47.526;8.538;2023-03-26T15:35:22;95483.28;;;7.83;83.51
73024;BME280;61199;47.526;8.538;2023-03-26T15:40:30;95490.84;;;7.86;82.38
73024;BME280;61199;47.526;8.538;2023-03-26T15:43:12;95498.38;;;7.89;82.98
73024;BME280;61199;47.526;8.538;2023-03-26T15:45:46;95508.50;;;7.92;83.45
73024;BME280;61199;47.526;8.538;2023-03-26T15:48:33;95512.03;;;8.10;82.80
73024;BME280;61199;47.526;8.538;2023-03-26T15:51:27;95512.03;;;8.19;80.77
73024;BME280;61199;47.526;8.538;2023-03-26T15:54:28;95536.25;;;7.74;81.54
73024;BME280;61199;47.526;8.538;2023-03-26T16:00:00;95607.44;;;6.78;87.68
73024;BME280;61199;47.526;8.538;2023-03-26T16:02:35;95608.31;;;6.58;84.98
73024;BME280;61199;47.526;8.538;2023-03-26T16:08:11;95602.38;;;6.56;84.02
73024;BME280;61199;47.526;8.538;2023-03-26T16:10:54;95624.78;;;6.68;83.08
73024;BME280;61199;47.526;8.538;2023-03-26T16:13:49;95616.84;;;6.39;82.93
73024;BME280;61199;47.526;8.538;2023-03-26T16:16:55;95624.44;;;6.31;82.58
73024;BME280;61199;47.526;8.538;2023-03-26T16:19:32;95647.09;;;6.20;83.11
73024;BME280;61199;47.526;8.538;2023-03-26T16:22:11;95620.84;;;6.23;82.94
73024;BME280;61199;47.526;8.538;2023-03-26T16:24:44;95576.41;;;6.05;81.63
73024;BME280;61199;47.526;8.538;2023-03-26T16:30:06;95534.16;;;5.83;82.15
73024;BME280;61199;47.526;8.538;2023-03-26T16:33:31;95539.41;;;5.92;83.14
73024;BME280;61199;47.526;8.538;2023-03-26T16:38:13;95554.94;;;6.03;82.63
73024;BME280;61199;47.526;8.538;2023-03-26T16:40:56;95555.50;;;5.86;83.09
73024;BME280;61199;47.526;8.538;2023-03-26T16:43:42;95566.03;;;5.85;83.02
73024;BME280;61199;47.526;8.538;2023-03-26T16:48:56;95559.22;;;5.73;83.20
73024;BME280;61199;47.526;8.538;2023-03-26T16:54:34;95563.41;;;6.05;80.99
73024;BME280;61199;47.526;8.538;2023-03-26T16:57:17;95564.94;;;6.08;81.00
73024;BME280;61199;47.526;8.538;2023-03-26T17:05:34;95537.84;;;6.31;81.49
73024;BME280;61199;47.526;8.538;2023-03-26T17:08:18;95554.59;;;6.17;82.08
73024;BME280;61199;47.526;8.538;2023-03-26T17:11:23;95561.44;;;6.18;81.95
73024;BME280;61199;47.526;8.538;2023-03-26T17:14:03;95566.25;;;6.23;81.60
73024;BME280;61199;47.526;8.538;2023-03-26T17:24:26;95549.97;;;6.60;79.33
73024;BME280;61199;47.526;8.538;2023-03-26T17:27:02;95543.41;;;6.66;80.14
73024;BME280;61199;47.526;8.538;2023-03-26T17:29:58;95535.13;;;6.81;79.92
73024;BME280;61199;47.526;8.538;2023-03-26T17:35:37;95544.47;;;6.44;80.09
73024;BME280;61199;47.526;8.538;2023-03-26T17:40:57;95559.16;;;6.25;81.34
73024;BME280;61199;47.526;8.538;2023-03-26T17:43:33;95558.09;;;6.37;81.37
73024;BME280;61199;47.526;8.538;2023-03-26T17:51:48;95553.91;;;6.45;80.72
73024;BME280;61199;47.526;8.538;2023-03-26T17:54:21;95549.31;;;6.28;80.89
73024;BME280;61199;47.526;8.538;2023-03-26T17:56:51;95548.94;;;6.33;81.16
73024;BME280;61199;47.526;8.538;2023-03-26T17:59:20;95544.06;;;6.49;80.69